Time;durP1;ratioP1;P1;durP2;ratioP2;P2;SDS_P1;SDS_P2;PMS_P1;PMS_P2;Temp;Humidity;BMP_temperature;BMP_pressure;BME280_temperature;BME280_humidity;BME280_pressure;Samples;Min_cycle;Max_cycle;Signal;HPM_P1;HPM_P2
2023/07/28 00:00:24;;;;;;;14.68;10.82;;;;;;;;;;4912557;28;98189;-78
2023/07/28 00:02:51;;;;;;;13.02;11.20;;;;;;;;;;4912444;28;99566;-77
2023/07/28 00:05:17;;;;;;;15.88;12.07;;;;;;;;;;4912450;28;100397;-77
2023/07/28 00:07:44;;;;;;;16.15;11.00;;;;;;;;;;4912087;28;98345;-77
2023/07/28 00:10:10;;;;;;;12.35;11.10;;;;;;;;;;4914165;28;98747;-76
2023/07/28 00:12:37;;;;;;;17.00;11.40;;;;;;;;;;4912607;28;98231;-77
2023/07/28 00:15:04;;;;;;;19.52;11.70;;;;;;;;;;4912640;28;99678;-77
2023/07/28 00:17:30;;;;;;;16.95;12.35;;;;;;;;;;4911020;28;99976;-76
2023/07/28 00:19:57;;;;;;;15.20;11.65;;;;;;;;;;4912607;28;98302;-78
2023/07/28 00:22:23;;;;;;;17.10;11.85;;;;;;;;;;4913916;28;99999;-76
2023/07/28 00:24:50;;;;;;;19.20;11.65;;;;;;;;;;4911339;28;98982;-78
2023/07/28 00:27:16;;;;;;;13.30;10.90;;;;;;;;;;4912371;28;98874;-78
2023/07/28 00:29:43;;;;;;;11.30;10.10;;;;;;;;;;4912530;28;98460;-77
2023/07/28 00:32:10;;;;;;;16.23;11.15;;;;;;;;;;4913835;28;100014;-77
2023/07/28 00:34:36;;;;;;;16.80;10.50;;;;;;;;;;4910203;28;99655;-77
2023/07/28 00:37:03;;;;;;;12.57;9.95;;;;;;;;;;4912194;28;98937;-77
2023/07/28 00:39:29;;;;;;;14.43;10.05;;;;;;;;;;4911007;28;98298;-77
2023/07/28 00:41:56;;;;;;;14.77;9.75;;;;;;;;;;4911060;28;100181;-78
2023/07/28 00:44:22;;;;;;;16.27;9.07;;;;;;;;;;4910518;28;99216;-76
2023/07/28 00:46:49;;;;;;;12.73;8.65;;;;;;;;;;4910979;28;98321;-77
2023/07/28 00:49:15;;;;;;;15.93;9.18;;;;;;;;;;4910479;28;99462;-78
2023/07/28 00:51:42;;;;;;;11.70;8.27;;;;;;;;;;4910457;28;98804;-77
2023/07/28 00:54:09;;;;;;;15.18;9.55;;;;;;;;;;4915380;28;98132;-78
2023/07/28 00:56:35;;;;;;;15.07;9.02;;;;;;;;;;4911472;28;99406;-78
2023/07/28 00:59:02;;;;;;;13.88;9.60;;;;;;;;;;4908730;28;98236;-76
2023/07/28 01:01:29;;;;;;;14.20;9.10;;;;;;;;;;4911364;28;99589;-77
2023/07/28 01:03:55;;;;;;;16.77;9.55;;;;;;;;;;4911774;28;99969;-77
2023/07/28 01:06:24;;;;;;;18.00;9.15;;;;;;;;;;4911029;28;98421;-78
2023/07/28 01:08:57;;;;;;;20.45;8.93;;;;;;;;;;4911913;28;98531;-78
2023/07/28 01:11:24;;;;;;;17.88;9.23;;;;;;;;;;4911099;28;100118;-78
2023/07/28 01:13:50;;;;;;;15.07;9.40;;;;;;;;;;4909874;28;98343;-78
2023/07/28 01:16:17;;;;;;;21.90;9.90;;;;;;;;;;4914777;28;99551;-77
2023/07/28 01:18:43;;;;;;;17.73;9.23;;;;;;;;;;4910471;28;98270;-78
2023/07/28 01:21:19;;;;;;;20.67;9.93;;;;;;;;;;4909598;28;99512;-77
2023/07/28 01:23:46;;;;;;;15.35;9.02;;;;;;;;;;4909233;28;98993;-77
2023/07/28 01:26:15;;;;;;;17.55;8.98;;;;;;;;;;4912474;28;98160;-78
2023/07/28 01:28:43;;;;;;;16.13;9.38;;;;;;;;;;4910999;28;99405;-77
2023/07/28 01:31:09;;;;;;;11.82;8.55;;;;;;;;;;4910722;28;100213;-78
2023/07/28 01:33:36;;;;;;;13.65;8.63;;;;;;;;;;4911709;28;98179;-78
2023/07/28 01:36:03;;;;;;;13.57;9.88;;;;;;;;;;4909178;28;98962;-78
2023/07/28 01:38:30;;;;;;;19.08;9.95;;;;;;;;;;4914367;28;99019;-77
2023/07/28 01:40:56;;;;;;;13.98;9.07;;;;;;;;;;4909389;28;100309;-77
2023/07/28 01:43:23;;;;;;;17.80;9.32;;;;;;;;;;4910923;28;98647;-77
2023/07/28 01:45:49;;;;;;;22.15;9.13;;;;;;;;;;4911569;28;98118;-78
2023/07/28 01:48:16;;;;;;;13.55;9.00;;;;;;;;;;4906966;28;99240;-78
2023/07/28 01:50:45;;;;;;;18.08;8.85;;;;;;;;;;4911064;28;99291;-78
2023/07/28 01:53:11;;;;;;;20.70;9.82;;;;;;;;;;4909456;28;98364;-77
2023/07/28 01:55:38;;;;;;;22.48;9.13;;;;;;;;;;4909222;28;99561;-77
2023/07/28 01:58:04;;;;;;;17.40;10.00;;;;;;;;;;4912988;28;101918;-77
2023/07/28 02:00:31;;;;;;;23.27;9.20;;;;;;;;;;4909649;28;100985;-77
2023/07/28 02:03:01;;;;;;;23.20;8.52;;;;;;;;;;4910353;28;98828;-77
2023/07/28 02:05:28;;;;;;;18.63;9.02;;;;;;;;;;4910613;28;98277;-78
2023/07/28 02:07:55;;;;;;;17.67;9.77;;;;;;;;;;4909475;28;101002;-76
2023/07/28 02:10:23;;;;;;;17.85;9.45;;;;;;;;;;4909731;28;98751;-78
2023/07/28 02:12:51;;;;;;;16.10;9.10;;;;;;;;;;4908878;28;98245;-78
2023/07/28 02:15:17;;;;;;;19.38;9.10;;;;;;;;;;4909365;28;99437;-77
2023/07/28 02:17:44;;;;;;;17.65;9.60;;;;;;;;;;4910277;28;99010;-78
2023/07/28 02:20:12;;;;;;;21.30;8.82;;;;;;;;;;4914416;28;98110;-77
2023/07/28 02:22:39;;;;;;;13.88;8.32;;;;;;;;;;4909302;28;101667;-78
2023/07/28 02:25:06;;;;;;;11.50;8.48;;;;;;;;;;4908888;28;98188;-77
2023/07/28 02:27:33;;;;;;;21.23;9.18;;;;;;;;;;4910461;28;99560;-77
2023/07/28 02:29:59;;;;;;;19.50;9.57;;;;;;;;;;4910818;28;99031;-77
2023/07/28 02:32:28;;;;;;;14.20;8.80;;;;;;;;;;4908462;28;98218;-77
2023/07/28 02:34:54;;;;;;;15.63;9.70;;;;;;;;;;4910790;28;98567;-78
2023/07/28 02:37:21;;;;;;;20.42;11.38;;;;;;;;;;4908568;28;100014;-78
2023/07/28 02:39:47;;;;;;;30.85;11.80;;;;;;;;;;4909175;28;98284;-77
2023/07/28 02:42:14;;;;;;;22.23;11.63;;;;;;;;;;4913252;28;98607;-76
2023/07/28 02:44:41;;;;;;;30.58;12.10;;;;;;;;;;4909958;28;98132;-75
2023/07/28 02:47:07;;;;;;;24.25;11.07;;;;;;;;;;4910825;28;98571;-76
2023/07/28 02:49:34;;;;;;;17.63;11.30;;;;;;;;;;4910299;28;98803;-77
2023/07/28 02:52:02;;;;;;;26.48;11.40;;;;;;;;;;4909571;28;99034;-77
2023/07/28 02:54:29;;;;;;;21.80;11.23;;;;;;;;;;4910583;28;98234;-77
2023/07/28 02:56:55;;;;;;;26.90;12.27;;;;;;;;;;4913416;28;98938;-78
2023/07/28 02:59:23;;;;;;;23.35;11.80;;;;;;;;;;4912737;28;98382;-78
2023/07/28 03:01:53;;;;;;;24.55;12.48;;;;;;;;;;4911446;28;100694;-78
2023/07/28 03:04:20;;;;;;;19.70;12.25;;;;;;;;;;4915115;28;100471;-76
2023/07/28 03:07:19;;;;;;;32.72;12.50;;;;;;;;;;4910620;28;98541;-77
2023/07/28 03:09:51;;;;;;;26.05;11.73;;;;;;;;;;4911875;28;99160;-77
2023/07/28 03:12:18;;;;;;;35.70;12.13;;;;;;;;;;4929742;28;98259;-78
2023/07/28 03:14:46;;;;;;;28.52;11.65;;;;;;;;;;4913839;28;98273;-78
2023/07/28 03:17:12;;;;;;;31.40;11.63;;;;;;;;;;4911646;28;101329;-77
2023/07/28 03:19:38;;;;;;;32.72;13.05;;;;;;;;;;4913075;28;98200;-77
2023/07/28 03:22:05;;;;;;;27.55;11.25;;;;;;;;;;4911836;28;100938;-77
2023/07/28 03:24:31;;;;;;;29.35;11.40;;;;;;;;;;4913026;28;99043;-76
2023/07/28 03:26:58;;;;;;;26.55;12.68;;;;;;;;;;4913756;28;98267;-76
2023/07/28 03:29:24;;;;;;;28.15;10.85;;;;;;;;;;4912629;28;99260;-78
2023/07/28 03:31:51;;;;;;;34.00;12.82;;;;;;;;;;4913177;28;98306;-77
2023/07/28 03:34:18;;;;;;;31.45;11.00;;;;;;;;;;4910363;28;100351;-78
2023/07/28 03:36:45;;;;;;;36.97;11.65;;;;;;;;;;4911841;28;99267;-77
2023/07/28 03:39:13;;;;;;;20.65;10.75;;;;;;;;;;4911526;28;98208;-77
2023/07/28 03:41:40;;;;;;;31.73;12.00;;;;;;;;;;4910903;28;101491;-76
2023/07/28 03:44:06;;;;;;;37.58;13.27;;;;;;;;;;4911823;28;101812;-77
2023/07/28 03:46:33;;;;;;;27.45;11.98;;;;;;;;;;4911325;28;98219;-77
2023/07/28 03:49:00;;;;;;;25.98;13.45;;;;;;;;;;4895217;28;99700;-77
2023/07/28 03:51:26;;;;;;;35.38;13.25;;;;;;;;;;4891186;28;98404;-77
2023/07/28 03:53:53;;;;;;;38.40;13.55;;;;;;;;;;4893729;28;98516;-77
2023/07/28 03:56:19;;;;;;;42.10;14.93;;;;;;;;;;4892271;28;98716;-77
2023/07/28 03:58:46;;;;;;;40.50;13.90;;;;;;;;;;4893692;28;98125;-77
2023/07/28 04:01:13;;;;;;;41.08;14.95;;;;;;;;;;4891884;28;99476;-77
2023/07/28 04:03:40;;;;;;;37.35;14.50;;;;;;;;;;4892742;28;101851;-77
2023/07/28 04:06:10;;;;;;;33.58;15.10;;;;;;;;;;4912251;28;98188;-79
2023/07/28 04:08:36;;;;;;;39.00;15.50;;;;;;;;;;4915307;28;98452;-77
2023/07/28 04:11:03;;;;;;;42.17;16.13;;;;;;;;;;4923190;28;98276;-78
2023/07/28 04:13:29;;;;;;;43.33;15.32;;;;;;;;;;4930061;28;100435;-77
2023/07/28 04:15:56;;;;;;;37.70;16.95;;;;;;;;;;4929046;28;101307;-76
2023/07/28 04:18:23;;;;;;;46.53;15.32;;;;;;;;;;4931758;28;98184;-79
2023/07/28 04:20:49;;;;;;;32.13;14.48;;;;;;;;;;4928578;28;100056;-78
2023/07/28 04:23:16;;;;;;;34.70;15.13;;;;;;;;;;4911212;28;99012;-78
2023/07/28 04:25:42;;;;;;;37.17;15.20;;;;;;;;;;4912495;28;98112;-78
2023/07/28 04:28:09;;;;;;;32.42;16.40;;;;;;;;;;4911217;28;99431;-78
2023/07/28 04:30:36;;;;;;;42.92;16.98;;;;;;;;;;4914435;28;99113;-76
2023/07/28 04:33:02;;;;;;;31.40;14.63;;;;;;;;;;4911213;28;101312;-77
2023/07/28 04:35:35;;;;;;;43.65;15.00;;;;;;;;;;4910650;28;101774;-79
2023/07/28 04:38:18;;;;;;;42.35;16.63;;;;;;;;;;4910228;28;99577;-77
2023/07/28 04:40:54;;;;;;;40.50;15.20;;;;;;;;;;4919477;28;99521;-77
2023/07/28 04:43:26;;;;;;;40.20;15.15;;;;;;;;;;4929444;28;99936;-78
2023/07/28 04:45:55;;;;;;;30.63;15.40;;;;;;;;;;4921183;28;98470;-76
2023/07/28 04:48:24;;;;;;;35.60;14.90;;;;;;;;;;4910139;28;98630;-78
2023/07/28 04:50:51;;;;;;;29.13;14.98;;;;;;;;;;4909803;28;101733;-77
2023/07/28 04:53:46;;;;;;;32.50;14.73;;;;;;;;;;4915145;28;98189;-78
2023/07/28 04:56:22;;;;;;;37.67;15.52;;;;;;;;;;4909798;28;100989;-76
2023/07/28 04:58:49;;;;;;;40.72;15.10;;;;;;;;;;4910039;28;98317;-77
2023/07/28 05:01:15;;;;;;;39.20;15.07;;;;;;;;;;4910184;28;100279;-76
2023/07/28 05:03:46;;;;;;;32.75;16.08;;;;;;;;;;4910388;28;100396;-77
2023/07/28 05:06:21;;;;;;;37.38;14.95;;;;;;;;;;4909208;28;98245;-77
2023/07/28 05:08:47;;;;;;;38.00;14.43;;;;;;;;;;4911672;28;98587;-78
2023/07/28 05:11:20;;;;;;;32.80;15.45;;;;;;;;;;4924554;28;99504;-77
2023/07/28 05:13:46;;;;;;;34.03;14.85;;;;;;;;;;4908692;28;98360;-76
2023/07/28 05:16:13;;;;;;;45.35;15.27;;;;;;;;;;4914586;28;98333;-78
2023/07/28 05:19:14;;;;;;;49.05;16.27;;;;;;;;;;4910201;28;98219;-76
2023/07/28 05:21:52;;;;;;;39.60;15.77;;;;;;;;;;4911858;28;98251;-77
2023/07/28 05:24:25;;;;;;;34.63;15.35;;;;;;;;;;4910185;28;100373;-78
2023/07/28 05:26:51;;;;;;;44.13;17.23;;;;;;;;;;4911182;28;98586;-76
2023/07/28 05:29:18;;;;;;;38.03;15.55;;;;;;;;;;4909710;28;100564;-77
2023/07/28 05:31:46;;;;;;;45.53;15.95;;;;;;;;;;4909441;28;99331;-76
2023/07/28 05:34:23;;;;;;;35.08;16.50;;;;;;;;;;4908868;28;98739;-76
2023/07/28 05:36:50;;;;;;;28.80;15.73;;;;;;;;;;4910020;28;101736;-78
2023/07/28 05:39:16;;;;;;;57.58;19.48;;;;;;;;;;4914511;28;100464;-76
2023/07/28 05:41:45;;;;;;;30.42;15.50;;;;;;;;;;4909537;28;101028;-77
2023/07/28 05:44:12;;;;;;;38.67;15.32;;;;;;;;;;4909486;28;99339;-77
2023/07/28 05:46:39;;;;;;;38.83;16.25;;;;;;;;;;4911199;28;98266;-77
2023/07/28 05:49:06;;;;;;;36.03;14.82;;;;;;;;;;4908357;28;99505;-78
2023/07/28 05:51:33;;;;;;;32.28;15.20;;;;;;;;;;4910806;28;99064;-78
2023/07/28 05:53:59;;;;;;;31.63;13.75;;;;;;;;;;4909454;28;98285;-78
2023/07/28 05:56:26;;;;;;;29.85;14.93;;;;;;;;;;4908084;28;99422;-79
2023/07/28 05:58:52;;;;;;;32.72;14.02;;;;;;;;;;4911204;28;98870;-78
2023/07/28 06:01:19;;;;;;;33.58;13.23;;;;;;;;;;4911142;28;98276;-76
2023/07/28 06:04:21;;;;;;;29.20;12.20;;;;;;;;;;4888403;28;99897;-77
2023/07/28 06:06:51;;;;;;;28.10;12.35;;;;;;;;;;4900854;28;99309;-77
2023/07/28 06:09:18;;;;;;;24.75;12.55;;;;;;;;;;4916077;28;99440;-77
2023/07/28 06:11:44;;;;;;;26.52;12.50;;;;;;;;;;4902771;28;98830;-77
2023/07/28 06:14:12;;;;;;;25.92;11.18;;;;;;;;;;4897902;28;99544;-78
2023/07/28 06:16:39;;;;;;;24.65;10.13;;;;;;;;;;4899220;28;98275;-77
2023/07/28 06:19:06;;;;;;;21.02;10.63;;;;;;;;;;4900797;28;101557;-76
2023/07/28 06:21:36;;;;;;;21.20;10.65;;;;;;;;;;4910112;28;98118;-76
2023/07/28 06:24:03;;;;;;;26.45;10.93;;;;;;;;;;4906955;28;100549;-77
2023/07/28 06:26:29;;;;;;;28.38;11.82;;;;;;;;;;4908112;28;98254;-78
2023/07/28 06:28:56;;;;;;;20.42;10.55;;;;;;;;;;4911152;28;99353;-79
2023/07/28 06:31:23;;;;;;;23.25;11.20;;;;;;;;;;4912116;28;98837;-79
2023/07/28 06:33:49;;;;;;;24.35;11.25;;;;;;;;;;4908225;28;99433;-76
2023/07/28 06:36:17;;;;;;;23.83;10.80;;;;;;;;;;4904580;28;100371;-76
2023/07/28 06:38:48;;;;;;;26.23;10.50;;;;;;;;;;4901447;28;100386;-76
2023/07/28 06:41:14;;;;;;;17.05;10.00;;;;;;;;;;4901521;28;98870;-77
2023/07/28 06:43:42;;;;;;;35.08;11.32;;;;;;;;;;4904779;28;99823;-77
2023/07/28 06:46:09;;;;;;;17.20;9.88;;;;;;;;;;4901224;28;99209;-78
2023/07/28 06:48:36;;;;;;;27.08;10.10;;;;;;;;;;4903950;28;99100;-77
2023/07/28 06:51:02;;;;;;;19.90;10.40;;;;;;;;;;4902733;28;100454;-76
2023/07/28 06:53:28;;;;;;;20.00;10.10;;;;;;;;;;4906927;28;98999;-77
2023/07/28 06:55:55;;;;;;;21.75;11.10;;;;;;;;;;4910251;28;98371;-76
2023/07/28 06:58:22;;;;;;;17.40;10.60;;;;;;;;;;4906557;28;100114;-78
2023/07/28 07:00:48;;;;;;;16.52;10.77;;;;;;;;;;4898944;28;98056;-78
2023/07/28 07:03:14;;;;;;;19.95;9.77;;;;;;;;;;4913339;28;98345;-77
2023/07/28 07:05:43;;;;;;;22.30;9.95;;;;;;;;;;4902405;28;98872;-76
2023/07/28 07:08:11;;;;;;;18.88;10.35;;;;;;;;;;4894444;28;99409;-78
2023/07/28 07:10:38;;;;;;;21.48;10.63;;;;;;;;;;4893950;28;98796;-77
2023/07/28 07:13:05;;;;;;;18.90;10.65;;;;;;;;;;4893457;28;98514;-76
2023/07/28 07:15:33;;;;;;;20.83;11.00;;;;;;;;;;4895101;28;98430;-77
2023/07/28 07:18:00;;;;;;;20.67;10.82;;;;;;;;;;4909401;28;98983;-78
2023/07/28 07:20:26;;;;;;;20.63;10.90;;;;;;;;;;4912380;28;98266;-76
2023/07/28 07:22:52;;;;;;;21.98;11.02;;;;;;;;;;4913290;28;99048;-77
2023/07/28 07:25:23;;;;;;;15.95;10.82;;;;;;;;;;4912870;28;98951;-79
2023/07/28 07:27:49;;;;;;;14.73;10.40;;;;;;;;;;4916088;28;98399;-78
2023/07/28 07:30:16;;;;;;;16.65;10.55;;;;;;;;;;4912485;28;98555;-77
2023/07/28 07:32:43;;;;;;;16.15;10.52;;;;;;;;;;4912040;28;98539;-77
2023/07/28 07:35:09;;;;;;;21.50;11.25;;;;;;;;;;4912397;28;98728;-78
2023/07/28 07:37:36;;;;;;;20.95;12.32;;;;;;;;;;4912966;28;100893;-77
2023/07/28 07:40:03;;;;;;;24.85;11.57;;;;;;;;;;4898080;28;98192;-78
2023/07/28 07:42:41;;;;;;;22.65;11.63;;;;;;;;;;4895101;28;98643;-77
2023/07/28 07:45:08;;;;;;;21.33;12.05;;;;;;;;;;4893833;28;100204;-77
2023/07/28 07:47:35;;;;;;;15.20;11.57;;;;;;;;;;4892678;28;98254;-78
2023/07/28 07:50:01;;;;;;;22.25;12.23;;;;;;;;;;4895566;28;98770;-78
2023/07/28 07:52:27;;;;;;;19.85;11.93;;;;;;;;;;4893632;28;98374;-78
2023/07/28 07:54:54;;;;;;;21.95;12.45;;;;;;;;;;4911151;28;99375;-77
2023/07/28 07:57:20;;;;;;;27.92;12.60;;;;;;;;;;4912169;28;100166;-78
2023/07/28 07:59:47;;;;;;;18.73;11.70;;;;;;;;;;4912202;28;98244;-76
2023/07/28 08:02:13;;;;;;;17.45;10.30;;;;;;;;;;4911348;28;99589;-77
2023/07/28 08:04:40;;;;;;;19.15;10.00;;;;;;;;;;4912171;28;99928;-77
2023/07/28 08:07:06;;;;;;;17.90;10.65;;;;;;;;;;4912462;28;98220;-77
2023/07/28 08:09:34;;;;;;;14.75;9.70;;;;;;;;;;4912045;28;98668;-77
2023/07/28 08:12:00;;;;;;;12.55;9.20;;;;;;;;;;4914831;28;98472;-77
2023/07/28 08:14:27;;;;;;;15.73;9.40;;;;;;;;;;4912314;28;99427;-77
2023/07/28 08:16:53;;;;;;;11.35;9.38;;;;;;;;;;4911982;28;99035;-77
2023/07/28 08:19:20;;;;;;;16.50;8.50;;;;;;;;;;4912551;28;98207;-77
2023/07/28 08:21:46;;;;;;;12.70;8.15;;;;;;;;;;4912202;28;98490;-77
2023/07/28 08:24:13;;;;;;;9.55;8.20;;;;;;;;;;4909995;28;99022;-78
2023/07/28 08:26:40;;;;;;;12.80;7.68;;;;;;;;;;4912518;28;98235;-77
2023/07/28 08:29:06;;;;;;;15.82;7.63;;;;;;;;;;4911627;28;99565;-77
2023/07/28 08:31:33;;;;;;;13.60;7.95;;;;;;;;;;4915093;28;98965;-76
2023/07/28 08:34:02;;;;;;;8.88;6.93;;;;;;;;;;4909682;28;100963;-78
2023/07/28 08:36:29;;;;;;;10.23;7.25;;;;;;;;;;4900667;28;99140;-76
2023/07/28 08:38:55;;;;;;;10.02;6.40;;;;;;;;;;4903929;28;98276;-77
2023/07/28 08:41:21;;;;;;;6.90;5.53;;;;;;;;;;4912235;28;101150;-79
2023/07/28 08:43:50;;;;;;;7.18;6.40;;;;;;;;;;4907853;28;99072;-76
2023/07/28 08:46:18;;;;;;;10.52;6.00;;;;;;;;;;4893269;28;98303;-76
2023/07/28 08:48:45;;;;;;;10.40;5.20;;;;;;;;;;4903592;28;99295;-77
2023/07/28 08:51:12;;;;;;;12.25;5.75;;;;;;;;;;4918157;28;98968;-77
2023/07/28 08:53:39;;;;;;;6.47;4.90;;;;;;;;;;4914516;28;98662;-77
2023/07/28 08:56:06;;;;;;;7.15;4.40;;;;;;;;;;4911724;28;99123;-77
2023/07/28 08:58:33;;;;;;;8.52;3.60;;;;;;;;;;4910891;28;98364;-77
2023/07/28 09:01:02;;;;;;;5.65;3.53;;;;;;;;;;4911840;28;99818;-76
2023/07/28 09:03:29;;;;;;;8.48;3.67;;;;;;;;;;4911305;28;99440;-78
2023/07/28 09:05:59;;;;;;;11.65;4.32;;;;;;;;;;4911462;28;98363;-78
2023/07/28 09:08:26;;;;;;;11.27;2.95;;;;;;;;;;4911675;28;99149;-78
2023/07/28 09:10:54;;;;;;;8.50;3.17;;;;;;;;;;4912541;28;99844;-77
2023/07/28 09:13:20;;;;;;;8.32;2.70;;;;;;;;;;4909588;28;98147;-78
2023/07/28 09:15:47;;;;;;;7.93;3.53;;;;;;;;;;4914956;28;99732;-78
2023/07/28 09:18:17;;;;;;;6.82;2.78;;;;;;;;;;4910774;28;98250;-78
2023/07/28 09:20:44;;;;;;;5.15;2.40;;;;;;;;;;4911757;28;98894;-77
2023/07/28 09:23:10;;;;;;;11.88;2.45;;;;;;;;;;4911449;28;99813;-78
2023/07/28 09:25:38;;;;;;;2.38;1.77;;;;;;;;;;4910875;28;98280;-78
2023/07/28 09:28:04;;;;;;;6.20;2.08;;;;;;;;;;4911680;28;99647;-78
2023/07/28 09:30:44;;;;;;;6.20;1.90;;;;;;;;;;4911770;28;100318;-78
2023/07/28 09:33:11;;;;;;;7.22;2.38;;;;;;;;;;4910606;28;98983;-78
2023/07/28 09:35:47;;;;;;;7.32;2.58;;;;;;;;;;4911483;28;98575;-77
2023/07/28 09:38:14;;;;;;;5.00;2.20;;;;;;;;;;4914940;28;99196;-76
2023/07/28 09:40:40;;;;;;;4.43;2.35;;;;;;;;;;4910656;28;99561;-76
2023/07/28 09:43:07;;;;;;;4.05;2.13;;;;;;;;;;4911294;28;100568;-78
2023/07/28 09:45:34;;;;;;;8.05;2.03;;;;;;;;;;4910991;28;98287;-78
2023/07/28 09:48:05;;;;;;;3.42;2.28;;;;;;;;;;4910884;28;99525;-78
2023/07/28 09:50:32;;;;;;;5.35;2.28;;;;;;;;;;4914494;28;99091;-77
2023/07/28 09:53:01;;;;;;;5.95;2.70;;;;;;;;;;4916764;28;98240;-76
2023/07/28 09:55:28;;;;;;;5.82;2.10;;;;;;;;;;4915603;28;98061;-77
2023/07/28 09:57:56;;;;;;;5.32;2.20;;;;;;;;;;4910686;28;99572;-76
2023/07/28 10:00:23;;;;;;;5.75;1.95;;;;;;;;;;4913487;28;98270;-77
2023/07/28 10:02:50;;;;;;;8.35;2.38;;;;;;;;;;4910308;28;98999;-76
2023/07/28 10:05:17;;;;;;;4.30;2.40;;;;;;;;;;4911821;28;98251;-76
2023/07/28 10:07:44;;;;;;;4.82;2.10;;;;;;;;;;4915924;28;98515;-78
2023/07/28 10:10:13;;;;;;;3.55;2.25;;;;;;;;;;4933041;28;98939;-76
2023/07/28 10:12:45;;;;;;;3.45;2.45;;;;;;;;;;4933723;28;98272;-77
2023/07/28 10:15:15;;;;;;;3.70;2.08;;;;;;;;;;4932535;28;98867;-77
2023/07/28 10:17:47;;;;;;;9.27;2.63;;;;;;;;;;4933501;28;100002;-76
2023/07/28 10:20:29;;;;;;;5.13;1.90;;;;;;;;;;4936805;28;98250;-77
2023/07/28 10:23:22;;;;;;;3.80;2.45;;;;;;;;;;4932812;28;100216;-77
2023/07/28 10:25:55;;;;;;;6.50;2.90;;;;;;;;;;4930946;28;98265;-77
2023/07/28 10:28:25;;;;;;;3.60;2.72;;;;;;;;;;4932515;28;98405;-77
2023/07/28 10:30:52;;;;;;;2.70;2.20;;;;;;;;;;4933152;28;100196;-79
2023/07/28 10:33:26;;;;;;;4.40;2.40;;;;;;;;;;4917139;28;98232;-78
2023/07/28 10:35:53;;;;;;;2.75;1.98;;;;;;;;;;4913795;28;98845;-77
2023/07/28 10:38:32;;;;;;;3.92;2.50;;;;;;;;;;4921185;28;100130;-76
2023/07/28 10:41:07;;;;;;;3.47;2.42;;;;;;;;;;4933450;28;98124;-78
2023/07/28 10:43:33;;;;;;;5.40;2.80;;;;;;;;;;4935163;28;98754;-77
2023/07/28 10:46:00;;;;;;;4.90;2.58;;;;;;;;;;4912208;28;98899;-77
2023/07/28 10:48:27;;;;;;;2.88;2.20;;;;;;;;;;4913087;28;98895;-77
2023/07/28 10:50:53;;;;;;;4.43;2.58;;;;;;;;;;4912310;28;99022;-77
2023/07/28 10:53:20;;;;;;;2.30;2.10;;;;;;;;;;4912547;28;98297;-77
2023/07/28 10:55:47;;;;;;;5.75;2.70;;;;;;;;;;4915702;28;98501;-77
2023/07/28 10:58:14;;;;;;;6.18;2.45;;;;;;;;;;4912248;28;98916;-76
2023/07/28 11:00:41;;;;;;;4.22;2.65;;;;;;;;;;4913743;28;98227;-76
2023/07/28 11:03:08;;;;;;;4.40;2.53;;;;;;;;;;4913752;28;99376;-77
2023/07/28 11:05:35;;;;;;;2.60;2.40;;;;;;;;;;4915417;28;99316;-78
2023/07/28 11:08:02;;;;;;;2.88;2.35;;;;;;;;;;4913215;28;100208;-76
2023/07/28 11:10:29;;;;;;;3.15;2.35;;;;;;;;;;4924293;28;99197;-76
2023/07/28 11:12:57;;;;;;;5.80;2.60;;;;;;;;;;4932002;28;98263;-76
2023/07/28 11:15:25;;;;;;;2.85;2.15;;;;;;;;;;4932296;28;99609;-76
2023/07/28 11:17:52;;;;;;;4.25;2.40;;;;;;;;;;4930894;28;98950;-77
2023/07/28 11:20:20;;;;;;;3.72;2.40;;;;;;;;;;4932408;28;98198;-77
2023/07/28 11:22:51;;;;;;;3.58;2.35;;;;;;;;;;4932565;28;99679;-76
2023/07/28 11:25:18;;;;;;;8.15;3.40;;;;;;;;;;4931315;28;100469;-76
2023/07/28 11:27:46;;;;;;;4.13;2.67;;;;;;;;;;4935772;28;98299;-77
2023/07/28 11:30:13;;;;;;;4.55;3.05;;;;;;;;;;4932106;28;99961;-77
2023/07/28 11:32:44;;;;;;;7.70;3.73;;;;;;;;;;4930688;28;98791;-76
2023/07/28 11:35:14;;;;;;;4.72;2.83;;;;;;;;;;4932636;28;98911;-77
2023/07/28 11:37:47;;;;;;;3.15;2.67;;;;;;;;;;4932076;28;99922;-76
2023/07/28 11:40:14;;;;;;;2.55;2.30;;;;;;;;;;4929329;28;98291;-77
2023/07/28 11:42:53;;;;;;;4.53;2.15;;;;;;;;;;4931187;28;99463;-77
2023/07/28 11:45:22;;;;;;;3.83;2.50;;;;;;;;;;4931767;28;98932;-76
2023/07/28 11:47:56;;;;;;;5.20;2.50;;;;;;;;;;4931672;28;98330;-76
2023/07/28 11:50:27;;;;;;;5.25;3.28;;;;;;;;;;4935296;28;99481;-76
2023/07/28 11:52:56;;;;;;;3.70;2.70;;;;;;;;;;4931363;28;98444;-76
2023/07/28 11:55:25;;;;;;;6.70;3.20;;;;;;;;;;4931703;28;98855;-77
2023/07/28 11:57:54;;;;;;;4.05;2.95;;;;;;;;;;4932006;28;101802;-76
2023/07/28 12:00:34;;;;;;;3.78;2.35;;;;;;;;;;4931310;28;98275;-77
2023/07/28 12:03:06;;;;;;;5.13;2.33;;;;;;;;;;4932219;28;99556;-77
2023/07/28 12:05:35;;;;;;;3.30;3.00;;;;;;;;;;4931729;28;99150;-78
2023/07/28 12:08:32;;;;;;;5.30;2.92;;;;;;;;;;4930185;28;99632;-76
2023/07/28 12:11:02;;;;;;;4.32;2.47;;;;;;;;;;4913973;28;99626;-78
2023/07/28 12:13:31;;;;;;;5.43;2.72;;;;;;;;;;4916097;28;100022;-76
2023/07/28 12:16:03;;;;;;;2.63;2.33;;;;;;;;;;4911876;28;98482;-75
2023/07/28 12:18:58;;;;;;;3.83;2.42;;;;;;;;;;4913093;28;100017;-76
2023/07/28 12:21:25;;;;;;;3.60;2.78;;;;;;;;;;4910012;28;98443;-77
2023/07/28 12:23:52;;;;;;;5.03;3.65;;;;;;;;;;4912354;28;99944;-76
2023/07/28 12:26:21;;;;;;;5.53;2.40;;;;;;;;;;4908822;28;98847;-76
2023/07/28 12:28:47;;;;;;;2.95;2.47;;;;;;;;;;4910522;28;98321;-77
2023/07/28 12:31:14;;;;;;;4.57;2.90;;;;;;;;;;4912326;28;99677;-79
2023/07/28 12:33:44;;;;;;;6.50;3.60;;;;;;;;;;4911135;28;98928;-77
2023/07/28 12:36:18;;;;;;;4.13;2.90;;;;;;;;;;4912128;28;98542;-78
2023/07/28 12:38:49;;;;;;;;;;;;;;;;;;4911698;28;99027;-78
2023/07/28 12:41:15;;;;;;;4.53;3.15;;;;;;;;;;4911584;28;99357;-77
2023/07/28 12:43:47;;;;;;;6.95;3.10;;;;;;;;;;4911571;28;99730;-78
2023/07/28 12:46:19;;;;;;;9.48;3.15;;;;;;;;;;4908153;28;98278;-77
2023/07/28 12:48:46;;;;;;;4.68;3.13;;;;;;;;;;4912115;28;98420;-77
2023/07/28 12:51:14;;;;;;;5.30;2.83;;;;;;;;;;4911254;28;99369;-77
2023/07/28 12:53:57;;;;;;;4.43;3.00;;;;;;;;;;4902531;28;101543;-76
2023/07/28 12:56:24;;;;;;;3.92;2.78;;;;;;;;;;4898920;28;98472;-75
2023/07/28 12:58:53;;;;;;;3.70;2.78;;;;;;;;;;4895226;28;100524;-76
2023/07/28 13:01:23;;;;;;;4.13;3.10;;;;;;;;;;4911466;28;98212;-75
2023/07/28 13:03:51;;;;;;;8.10;3.33;;;;;;;;;;4911143;28;98612;-77
2023/07/28 13:06:21;;;;;;;4.97;2.80;;;;;;;;;;4911233;28;99928;-77
2023/07/28 13:08:48;;;;;;;5.00;3.30;;;;;;;;;;4910770;28;98386;-77
2023/07/28 13:11:20;;;;;;;5.45;3.30;;;;;;;;;;4908799;28;99831;-78
2023/07/28 13:13:46;;;;;;;2.90;2.70;;;;;;;;;;4911260;28;99079;-77
2023/07/28 13:16:15;;;;;;;4.53;2.65;;;;;;;;;;4911936;28;97895;-76
2023/07/28 13:18:46;;;;;;;7.10;3.00;;;;;;;;;;4914036;28;98469;-77
2023/07/28 13:21:13;;;;;;;2.92;2.42;;;;;;;;;;4911296;28;97831;-78
2023/07/28 13:23:40;;;;;;;4.50;2.67;;;;;;;;;;4911186;28;98859;-79
2023/07/28 13:26:06;;;;;;;3.72;2.53;;;;;;;;;;4910880;28;98921;-77
2023/07/28 13:28:36;;;;;;;3.40;2.35;;;;;;;;;;4911610;28;98251;-77
2023/07/28 13:31:04;;;;;;;4.78;1.83;;;;;;;;;;4911913;28;98092;-77
2023/07/28 13:33:31;;;;;;;3.78;2.45;;;;;;;;;;4909500;28;99161;-77
2023/07/28 13:35:57;;;;;;;2.85;2.40;;;;;;;;;;4892148;28;98225;-78
2023/07/28 13:38:24;;;;;;;2.15;1.90;;;;;;;;;;4891197;28;99440;-77
2023/07/28 13:40:50;;;;;;;3.38;2.03;;;;;;;;;;4913879;28;98914;-77
2023/07/28 13:43:16;;;;;;;2.20;1.85;;;;;;;;;;4910707;28;98765;-77
2023/07/28 13:45:43;;;;;;;3.45;2.05;;;;;;;;;;4910168;28;99192;-77
2023/07/28 13:48:10;;;;;;;5.65;2.65;;;;;;;;;;4910299;28;98215;-79
2023/07/28 13:50:51;;;;;;;2.58;2.33;;;;;;;;;;4911746;28;98192;-78
2023/07/28 13:53:20;;;;;;;2.70;2.20;;;;;;;;;;4910051;28;99958;-77
2023/07/28 13:55:50;;;;;;;2.50;2.03;;;;;;;;;;4911443;28;98248;-77
2023/07/28 13:58:23;;;;;;;3.08;2.17;;;;;;;;;;4910721;28;99851;-77
2023/07/28 14:00:49;;;;;;;2.35;1.80;;;;;;;;;;4910489;28;99659;-79
2023/07/28 14:03:16;;;;;;;4.70;2.47;;;;;;;;;;4914275;28;98204;-77
2023/07/28 14:05:43;;;;;;;2.72;1.88;;;;;;;;;;4910928;28;98842;-78
2023/07/28 14:08:10;;;;;;;3.63;1.90;;;;;;;;;;4908537;28;98627;-78
2023/07/28 14:10:38;;;;;;;3.53;2.63;;;;;;;;;;4900311;28;99508;-76
2023/07/28 14:13:04;;;;;;;4.32;2.55;;;;;;;;;;4910311;28;99280;-77
2023/07/28 14:15:31;;;;;;;3.63;2.50;;;;;;;;;;4904206;28;98260;-77
2023/07/28 14:17:57;;;;;;;3.92;2.38;;;;;;;;;;4911010;28;98615;-77
2023/07/28 14:20:24;;;;;;;3.10;2.45;;;;;;;;;;4910515;28;100387;-75
2023/07/28 14:22:52;;;;;;;3.58;2.60;;;;;;;;;;4910348;28;98204;-76
2023/07/28 14:25:18;;;;;;;3.17;2.45;;;;;;;;;;4913327;28;98566;-78
2023/07/28 14:27:44;;;;;;;2.40;2.30;;;;;;;;;;4909946;28;98202;-77
2023/07/28 14:30:11;;;;;;;2.33;2.03;;;;;;;;;;4910958;28;98950;-76
2023/07/28 14:32:38;;;;;;;3.88;2.60;;;;;;;;;;4909854;28;98950;-77
2023/07/28 14:35:04;;;;;;;3.58;2.15;;;;;;;;;;4909723;28;98267;-77